createdAt,value
2019-03-26T00:01:09.848Z,28.15
2019-03-26T00:02:15.248Z,25.60
2019-03-26T00:03:20.833Z,19.07
2019-03-26T00:04:26.265Z,20.55
2019-03-26T00:05:31.905Z,20.37
2019-03-26T00:06:37.416Z,24.15
2019-03-26T00:07:42.872Z,20.12
2019-03-26T00:08:48.389Z,22.05
2019-03-26T00:09:53.762Z,16.95
2019-03-26T00:10:59.231Z,17.92
2019-03-26T00:12:04.657Z,17.77
2019-03-26T00:13:10.593Z,18.20
2019-03-26T00:14:16.070Z,14.90
2019-03-26T00:15:21.516Z,20.52
2019-03-26T00:16:26.920Z,18.60
2019-03-26T00:17:32.391Z,19.40
2019-03-26T00:18:37.858Z,23.12
2019-03-26T00:19:43.196Z,26.20
2019-03-26T00:20:48.751Z,17.70
2019-03-26T00:21:54.257Z,19.60
2019-03-26T00:22:59.609Z,18.12
2019-03-26T00:24:05.135Z,17.17
2019-03-26T00:25:10.772Z,19.67
2019-03-26T00:26:16.213Z,17.50
2019-03-26T00:27:22.067Z,19.73
2019-03-26T00:28:27.567Z,21.52
2019-03-26T00:29:33.112Z,18.12
2019-03-26T00:30:38.480Z,25.68
2019-03-26T00:31:43.864Z,22.70
2019-03-26T00:32:49.321Z,23.35
2019-03-26T00:33:54.749Z,24.92
2019-03-26T00:35:00.358Z,19.48
2019-03-26T00:36:06.076Z,16.65
2019-03-26T00:37:11.397Z,20.82
2019-03-26T00:38:16.812Z,26.68
2019-03-26T00:39:22.256Z,23.10
2019-03-26T00:40:27.712Z,15.25
2019-03-26T00:41:33.119Z,19.77
2019-03-26T00:42:38.536Z,16.52
2019-03-26T00:43:43.955Z,22.65
2019-03-26T00:44:49.445Z,18.67
2019-03-26T00:45:54.905Z,16.05
2019-03-26T00:47:00.345Z,18.40
2019-03-26T00:48:05.685Z,15.20
2019-03-26T00:49:11.177Z,21.12
2019-03-26T00:50:16.700Z,14.35
2019-03-26T00:51:22.069Z,19.50
2019-03-26T00:52:27.516Z,15.40
2019-03-26T00:53:32.812Z,17.35
2019-03-26T00:54:38.297Z,20.15
2019-03-26T00:55:43.695Z,22.48
2019-03-26T00:56:49.028Z,19.42
2019-03-26T00:57:54.376Z,18.42
2019-03-26T00:58:59.773Z,17.65
2019-03-26T01:00:06.443Z,15.63
2019-03-26T01:01:12.048Z,21.23
2019-03-26T01:02:17.513Z,18.87
2019-03-26T01:03:23.048Z,18.92
2019-03-26T01:04:33.088Z,16.27
2019-03-26T01:05:35.693Z,20.08
2019-03-26T01:06:41.116Z,23.07
2019-03-26T01:07:46.565Z,16.37
2019-03-26T01:08:51.985Z,16.77
2019-03-26T01:09:57.587Z,19.55
2019-03-26T01:11:03.084Z,16.52
2019-03-26T01:12:08.624Z,20.10
2019-03-26T01:13:14.608Z,18.00
2019-03-26T01:14:20.375Z,13.93
2019-03-26T01:15:26.001Z,17.40
2019-03-26T01:16:31.291Z,14.33
2019-03-26T01:17:36.821Z,17.70
2019-03-26T01:18:42.392Z,23.40
2019-03-26T01:19:47.727Z,24.30
2019-03-26T01:20:53.230Z,21.57
2019-03-26T01:21:58.633Z,19.35
2019-03-26T01:23:04.064Z,20.92
2019-03-26T01:24:09.382Z,18.02
2019-03-26T01:25:14.892Z,17.48
2019-03-26T01:26:20.306Z,17.57
2019-03-26T01:27:25.656Z,18.82
2019-03-26T01:28:30.956Z,19.73
2019-03-26T01:29:36.372Z,21.07
2019-03-26T01:30:41.844Z,21.35
2019-03-26T01:31:47.261Z,20.37
2019-03-26T01:32:52.612Z,24.55
2019-03-26T01:33:58.210Z,21.55
2019-03-26T01:35:03.599Z,22.77
2019-03-26T01:36:08.976Z,15.78
2019-03-26T01:37:14.424Z,13.68
2019-03-26T01:38:19.787Z,25.43
2019-03-26T01:39:25.064Z,15.43
2019-03-26T01:40:32.293Z,19.17
2019-03-26T01:41:37.664Z,17.57
2019-03-26T01:42:43.104Z,18.15
2019-03-26T01:43:48.512Z,19.30
2019-03-26T01:44:53.972Z,20.17
2019-03-26T01:45:59.408Z,20.35
2019-03-26T01:47:04.784Z,20.65
2019-03-26T01:48:10.208Z,21.07
2019-03-26T01:49:15.658Z,21.48
2019-03-26T01:50:21.108Z,19.90
2019-03-26T01:51:26.460Z,16.48
2019-03-26T01:52:31.916Z,18.37
2019-03-26T01:53:37.323Z,17.32
2019-03-26T01:54:42.863Z,23.65
2019-03-26T01:55:48.372Z,25.48
2019-03-26T01:56:53.690Z,21.85
2019-03-26T01:57:59.232Z,22.52
2019-03-26T01:59:05.160Z,14.20
2019-03-26T02:00:10.720Z,17.40
2019-03-26T02:01:16.148Z,20.70
2019-03-26T02:02:21.765Z,16.60
2019-03-26T02:03:27.096Z,20.20
2019-03-26T02:04:32.435Z,13.98
2019-03-26T02:05:37.925Z,18.50
2019-03-26T02:06:43.356Z,18.57
2019-03-26T02:07:48.711Z,18.45
2019-03-26T02:08:54.028Z,21.68
2019-03-26T02:10:00.620Z,16.12
2019-03-26T02:11:06.133Z,18.12
2019-03-26T02:12:11.583Z,15.45
2019-03-26T02:13:16.920Z,20.88
2019-03-26T02:14:22.302Z,22.07
2019-03-26T02:15:32.064Z,18.80
2019-03-26T02:16:37.500Z,18.92
2019-03-26T02:17:42.850Z,22.93
2019-03-26T02:18:48.296Z,21.68
2019-03-26T02:19:53.726Z,19.32
2019-03-26T02:20:59.188Z,17.77
2019-03-26T02:22:04.544Z,17.60
2019-03-26T02:23:09.972Z,18.00
2019-03-26T02:24:15.409Z,16.27
2019-03-26T02:25:20.807Z,13.65
2019-03-26T02:26:26.243Z,15.00
2019-03-26T02:27:31.678Z,19.15
2019-03-26T02:28:36.960Z,19.20
2019-03-26T02:29:42.256Z,15.30
2019-03-26T02:30:47.745Z,16.60
2019-03-26T02:31:54.212Z,16.93
2019-03-26T02:32:59.645Z,14.40
2019-03-26T02:34:05.170Z,19.80
2019-03-26T02:35:18.249Z,17.50
2019-03-26T02:36:18.761Z,16.70
2019-03-26T02:37:24.213Z,19.73
2019-03-26T02:38:29.637Z,15.80
2019-03-26T02:39:35.125Z,20.40
2019-03-26T02:40:40.482Z,15.48
2019-03-26T02:41:45.875Z,19.00
2019-03-26T02:42:51.399Z,22.27
2019-03-26T02:43:56.701Z,13.80
2019-03-26T02:45:02.205Z,20.82
2019-03-26T02:46:08.088Z,22.22
2019-03-26T02:47:13.568Z,16.62
2019-03-26T02:48:18.973Z,18.67
2019-03-26T02:49:24.417Z,17.02
2019-03-26T02:50:29.819Z,21.52
2019-03-26T02:51:35.173Z,16.15
2019-03-26T02:52:40.560Z,14.83
2019-03-26T02:53:45.869Z,25.77
2019-03-26T02:54:51.360Z,18.25
2019-03-26T02:55:56.760Z,16.25
2019-03-26T02:57:02.077Z,19.48
2019-03-26T02:58:07.479Z,13.93
2019-03-26T02:59:12.897Z,15.95
2019-03-26T03:00:18.354Z,14.38
2019-03-26T03:01:23.781Z,17.60
2019-03-26T03:02:29.409Z,27.40
2019-03-26T03:03:34.707Z,33.55
2019-03-26T03:04:40.104Z,41.98
2019-03-26T03:05:45.605Z,33.30
2019-03-26T03:06:50.980Z,29.50
2019-03-26T03:07:56.325Z,29.50
2019-03-26T03:09:01.734Z,25.02
2019-03-26T03:10:08.777Z,27.25
2019-03-26T03:11:14.200Z,30.48
2019-03-26T03:12:19.496Z,37.78
2019-03-26T03:13:25.003Z,35.98
2019-03-26T03:14:30.532Z,41.98
2019-03-26T03:15:36.006Z,38.65
2019-03-26T03:16:41.345Z,32.17
2019-03-26T03:17:46.722Z,32.98
2019-03-26T03:18:52.174Z,35.20
2019-03-26T03:19:57.593Z,29.23
2019-03-26T03:21:02.938Z,28.67
2019-03-26T03:22:08.384Z,30.50
2019-03-26T03:23:13.976Z,22.82
2019-03-26T03:24:19.525Z,24.43
2019-03-26T03:25:25.045Z,20.92
2019-03-26T03:26:30.504Z,16.77
2019-03-26T03:27:35.927Z,20.45
2019-03-26T03:28:41.316Z,20.97
2019-03-26T03:29:46.660Z,23.45
2019-03-26T03:30:52.014Z,21.42
2019-03-26T03:31:57.527Z,20.43
2019-03-26T03:33:02.971Z,21.27
2019-03-26T03:34:08.245Z,22.27
2019-03-26T03:35:13.909Z,21.05
2019-03-26T03:36:19.357Z,25.02
2019-03-26T03:37:24.691Z,25.40
2019-03-26T03:38:30.022Z,21.90
2019-03-26T03:39:35.437Z,24.05
2019-03-26T03:40:40.785Z,24.75
2019-03-26T03:41:46.166Z,28.70
2019-03-26T03:42:51.585Z,29.00
2019-03-26T03:43:57.033Z,25.72
2019-03-26T03:45:02.585Z,24.07
2019-03-26T03:46:07.977Z,25.52
2019-03-26T03:47:15.231Z,20.45
2019-03-26T03:48:21.598Z,25.17
2019-03-26T03:49:28.916Z,26.20
2019-03-26T03:50:34.861Z,23.55
2019-03-26T03:51:41.444Z,29.75
2019-03-26T03:52:48.558Z,24.37
2019-03-26T03:53:54.362Z,23.50
2019-03-26T03:55:00.134Z,25.17
2019-03-26T03:56:06.711Z,26.77
2019-03-26T03:57:13.963Z,25.45
2019-03-26T03:58:21.284Z,23.92
2019-03-26T03:59:29.457Z,24.02
2019-03-26T04:00:40.052Z,23.07
2019-03-26T04:01:45.421Z,17.73
2019-03-26T04:02:50.906Z,19.57
2019-03-26T04:03:56.362Z,20.23
2019-03-26T04:05:01.657Z,20.43
2019-03-26T04:06:09.713Z,24.77
2019-03-26T04:07:14.284Z,23.85
2019-03-26T04:08:19.851Z,27.00
2019-03-26T04:09:25.787Z,23.32
2019-03-26T04:10:31.335Z,22.55
2019-03-26T04:11:36.671Z,26.42
2019-03-26T04:12:42.022Z,24.85
2019-03-26T04:13:47.488Z,22.10
2019-03-26T04:14:52.860Z,25.10
2019-03-26T04:15:58.208Z,18.25
2019-03-26T04:17:03.728Z,24.35
2019-03-26T04:18:09.277Z,22.15
2019-03-26T04:19:14.777Z,27.60
2019-03-26T04:20:20.109Z,20.82
2019-03-26T04:21:25.620Z,25.80
2019-03-26T04:22:30.945Z,23.92
2019-03-26T04:23:36.372Z,20.32
2019-03-26T04:24:41.954Z,23.70
2019-03-26T04:25:47.241Z,22.00
2019-03-26T04:26:52.652Z,25.25
2019-03-26T04:27:58.090Z,22.67
2019-03-26T04:29:03.531Z,20.80
2019-03-26T04:30:10.398Z,22.58
2019-03-26T04:31:15.810Z,24.98
2019-03-26T04:32:21.153Z,23.52
2019-03-26T04:33:26.586Z,24.65
2019-03-26T04:34:32.009Z,21.23
2019-03-26T04:35:37.316Z,18.20
2019-03-26T04:36:42.736Z,25.48
2019-03-26T04:37:48.166Z,20.30
2019-03-26T04:38:53.512Z,20.10
2019-03-26T04:39:58.900Z,19.55
2019-03-26T04:41:04.804Z,19.07
2019-03-26T04:42:10.272Z,22.60
2019-03-26T04:43:18.844Z,21.75
2019-03-26T04:44:22.748Z,20.80
2019-03-26T04:45:28.273Z,20.30
2019-03-26T04:46:33.872Z,23.60
2019-03-26T04:47:39.388Z,22.40
2019-03-26T04:48:44.857Z,21.62
2019-03-26T04:49:50.313Z,23.07
2019-03-26T04:50:55.748Z,22.58
2019-03-26T04:52:01.052Z,24.05
2019-03-26T04:53:06.504Z,19.60
2019-03-26T04:54:11.839Z,22.07
2019-03-26T04:55:20.341Z,23.47
2019-03-26T04:56:25.885Z,18.77
2019-03-26T04:57:31.211Z,20.43
2019-03-26T04:58:36.697Z,20.17
2019-03-26T04:59:42.352Z,23.40
2019-03-26T05:00:47.837Z,21.27
2019-03-26T05:01:53.164Z,24.32
2019-03-26T05:02:58.612Z,19.65
2019-03-26T05:04:04.207Z,18.82
2019-03-26T05:05:12.273Z,19.85
2019-03-26T05:06:16.800Z,19.80
2019-03-26T05:07:22.392Z,19.62
2019-03-26T05:08:27.820Z,19.87
2019-03-26T05:09:33.393Z,17.02
2019-03-26T05:10:38.927Z,18.00
2019-03-26T05:11:44.516Z,18.65
2019-03-26T05:12:50.096Z,18.92
2019-03-26T05:13:55.776Z,20.05
2019-03-26T05:15:01.273Z,22.58
2019-03-26T05:16:06.934Z,18.82
2019-03-26T05:17:12.345Z,17.80
2019-03-26T05:18:18.060Z,19.05
2019-03-26T05:19:23.663Z,18.27
2019-03-26T05:20:29.132Z,19.17
2019-03-26T05:21:34.551Z,21.97
2019-03-26T05:22:39.961Z,19.00
2019-03-26T05:23:45.547Z,23.25
2019-03-26T05:24:51.133Z,20.77
2019-03-26T05:25:56.736Z,23.00
2019-03-26T05:27:02.200Z,24.10
2019-03-26T05:28:07.813Z,20.23
2019-03-26T05:29:13.396Z,20.02
2019-03-26T05:30:18.941Z,18.15
2019-03-26T05:31:24.360Z,22.00
2019-03-26T05:32:29.808Z,25.82
2019-03-26T05:33:35.611Z,20.57
2019-03-26T05:34:41.139Z,19.27
2019-03-26T05:35:46.460Z,19.48
2019-03-26T05:36:51.990Z,20.55
2019-03-26T05:37:57.731Z,21.15
2019-03-26T05:39:04.311Z,22.70
2019-03-26T05:40:11.556Z,23.52
2019-03-26T05:41:17.224Z,17.48
2019-03-26T05:42:22.693Z,19.40
2019-03-26T05:43:28.551Z,20.20
2019-03-26T05:44:34.017Z,19.20
2019-03-26T05:45:39.515Z,17.02
2019-03-26T05:46:45.707Z,17.15
2019-03-26T05:47:52.172Z,18.67
2019-03-26T05:48:57.633Z,17.37
2019-03-26T05:50:03.272Z,18.10
2019-03-26T05:51:08.667Z,18.55
2019-03-26T05:52:14.238Z,18.67
2019-03-26T05:53:19.884Z,18.30
2019-03-26T05:54:25.569Z,15.43
2019-03-26T05:55:31.142Z,14.93
2019-03-26T05:56:36.582Z,17.07
2019-03-26T05:57:42.096Z,18.60
2019-03-26T05:58:47.660Z,19.35
2019-03-26T05:59:53.116Z,15.70
2019-03-26T06:00:58.678Z,15.78
2019-03-26T06:02:14.280Z,15.20
2019-03-26T06:03:11.987Z,14.93
2019-03-26T06:04:17.628Z,14.80
2019-03-26T06:05:23.130Z,16.42
2019-03-26T06:06:28.680Z,14.78
2019-03-26T06:07:34.185Z,15.72
2019-03-26T06:08:39.897Z,12.75
2019-03-26T06:09:45.538Z,12.45
2019-03-26T06:10:51.001Z,14.43
2019-03-26T06:11:56.461Z,12.13
2019-03-26T06:13:02.049Z,14.00
2019-03-26T06:14:07.716Z,18.10
2019-03-26T06:15:13.943Z,14.78
2019-03-26T06:16:19.532Z,16.90
2019-03-26T06:17:25.054Z,12.60
2019-03-26T06:18:30.785Z,13.80
2019-03-26T06:19:36.184Z,14.45
2019-03-26T06:20:42.794Z,12.25
2019-03-26T06:21:48.285Z,15.63
2019-03-26T06:22:53.820Z,16.52
2019-03-26T06:23:59.291Z,15.10
2019-03-26T06:25:05.366Z,13.70
2019-03-26T06:26:11.920Z,17.57
2019-03-26T06:27:18.088Z,18.27
2019-03-26T06:28:24.179Z,14.53
2019-03-26T06:29:29.820Z,14.98
2019-03-26T06:30:35.378Z,16.00
2019-03-26T06:31:40.796Z,16.23
2019-03-26T06:32:46.544Z,14.47
2019-03-26T06:33:52.045Z,11.12
2019-03-26T06:34:57.701Z,13.30
2019-03-26T06:36:03.376Z,11.00
2019-03-26T06:37:17.841Z,12.00
2019-03-26T06:38:16.119Z,10.90
2019-03-26T06:39:22.015Z,11.73
2019-03-26T06:40:27.842Z,13.83
2019-03-26T06:41:33.567Z,9.80
2019-03-26T06:42:39.481Z,13.72
2019-03-26T06:43:45.168Z,8.73
2019-03-26T06:44:50.831Z,11.68
2019-03-26T06:45:56.450Z,12.45
2019-03-26T06:47:02.105Z,12.00
2019-03-26T06:48:07.818Z,9.68
2019-03-26T06:49:13.412Z,11.30
2019-03-26T06:50:18.950Z,14.58
2019-03-26T06:51:24.403Z,12.35
2019-03-26T06:52:30.032Z,9.98
2019-03-26T06:53:35.519Z,10.93
2019-03-26T06:54:40.876Z,9.58
2019-03-26T06:55:46.468Z,11.75
2019-03-26T06:56:52.417Z,11.15
2019-03-26T06:57:59.280Z,11.38
2019-03-26T06:59:05.204Z,9.60
2019-03-26T07:00:11.894Z,10.43
2019-03-26T07:01:17.688Z,10.45
2019-03-26T07:02:23.696Z,8.68
2019-03-26T07:03:29.910Z,11.18
2019-03-26T07:04:35.419Z,10.08
2019-03-26T07:05:42.322Z,10.82
2019-03-26T07:06:48.004Z,10.40
2019-03-26T07:07:53.588Z,11.22
2019-03-26T07:08:59.110Z,11.65
2019-03-26T07:10:05.029Z,9.43
2019-03-26T07:11:10.666Z,9.75
2019-03-26T07:12:16.197Z,10.32
2019-03-26T07:13:24.598Z,11.05
2019-03-26T07:14:30.248Z,9.48
2019-03-26T07:15:35.664Z,10.35
2019-03-26T07:16:41.128Z,13.45
2019-03-26T07:17:47.003Z,12.70
2019-03-26T07:18:52.430Z,13.15
2019-03-26T07:19:58.026Z,13.53
2019-03-26T07:21:03.791Z,11.43
2019-03-26T07:22:09.497Z,13.88
2019-03-26T07:23:15.290Z,12.55
2019-03-26T07:24:20.992Z,12.80
2019-03-26T07:25:26.492Z,11.25
2019-03-26T07:26:32.442Z,13.45
2019-03-26T07:27:38.377Z,14.78
2019-03-26T07:28:44.065Z,10.82
2019-03-26T07:29:49.665Z,14.58
2019-03-26T07:30:55.278Z,12.75
2019-03-26T07:32:00.812Z,20.82
2019-03-26T07:33:06.493Z,16.55
2019-03-26T07:34:12.240Z,16.10
2019-03-26T07:35:17.642Z,14.55
2019-03-26T07:36:23.045Z,13.85
2019-03-26T07:37:29.966Z,14.75
2019-03-26T07:38:35.496Z,15.75
2019-03-26T07:39:40.922Z,13.43
2019-03-26T07:40:46.660Z,18.15
2019-03-26T07:41:52.293Z,14.43
2019-03-26T07:42:57.845Z,13.83
2019-03-26T07:44:03.497Z,14.95
2019-03-26T07:45:11.965Z,15.78
2019-03-26T07:46:17.307Z,14.95
2019-03-26T07:47:22.784Z,18.23
2019-03-26T07:48:28.347Z,16.45
2019-03-26T07:49:33.956Z,13.28
2019-03-26T07:50:39.430Z,12.88
2019-03-26T07:51:44.916Z,17.12
2019-03-26T07:52:50.563Z,13.20
2019-03-26T07:53:56.034Z,16.45
2019-03-26T07:55:02.718Z,13.70
2019-03-26T07:56:08.417Z,14.30
2019-03-26T07:57:13.993Z,16.37
2019-03-26T07:58:19.612Z,15.18
2019-03-26T07:59:25.470Z,15.13
2019-03-26T08:00:37.419Z,26.82
2019-03-26T08:01:43.009Z,11.63
2019-03-26T08:02:48.653Z,14.43
2019-03-26T08:03:54.221Z,34.43
2019-03-26T08:04:59.914Z,13.30
2019-03-26T08:06:07.808Z,19.98
2019-03-26T08:07:13.456Z,17.50
2019-03-26T08:08:19.248Z,15.80
2019-03-26T08:09:25.110Z,16.42
2019-03-26T08:10:30.937Z,16.10
2019-03-26T08:11:36.453Z,12.53
2019-03-26T08:12:42.017Z,32.48
2019-03-26T08:13:47.639Z,29.25
2019-03-26T08:14:53.324Z,27.50
2019-03-26T08:15:58.953Z,40.23
2019-03-26T08:17:05.344Z,20.62
2019-03-26T08:18:10.972Z,13.22
2019-03-26T08:19:16.517Z,23.70
2019-03-26T08:20:22.154Z,16.35
2019-03-26T08:21:27.635Z,14.43
2019-03-26T08:22:33.266Z,16.23
2019-03-26T08:23:38.883Z,11.35
2019-03-26T08:24:44.496Z,14.03
2019-03-26T08:25:50.640Z,13.50
2019-03-26T08:26:56.205Z,16.90
2019-03-26T08:28:04.901Z,16.07
2019-03-26T08:29:09.482Z,12.53
2019-03-26T08:30:15.824Z,15.63
2019-03-26T08:31:21.552Z,12.65
2019-03-26T08:32:27.438Z,16.90
2019-03-26T08:33:33.185Z,13.10
2019-03-26T08:34:38.937Z,15.60
2019-03-26T08:35:44.597Z,14.25
2019-03-26T08:36:50.182Z,17.67
2019-03-26T08:37:55.705Z,11.50
2019-03-26T08:39:01.201Z,12.68
2019-03-26T08:40:10.817Z,11.70
2019-03-26T08:41:16.453Z,15.70
2019-03-26T08:42:21.996Z,9.50
2019-03-26T08:43:27.597Z,12.47
2019-03-26T08:44:33.479Z,10.98
2019-03-26T08:45:39.270Z,12.60
2019-03-26T08:46:46.320Z,15.53
2019-03-26T08:47:52.183Z,10.25
2019-03-26T08:48:58.790Z,14.25
2019-03-26T08:50:04.651Z,9.93
2019-03-26T08:51:10.299Z,9.85
2019-03-26T08:52:18.084Z,13.13
2019-03-26T08:53:23.710Z,11.40
2019-03-26T08:54:29.253Z,12.68
2019-03-26T08:55:34.855Z,14.38
2019-03-26T08:56:40.521Z,14.13
2019-03-26T08:57:46.627Z,11.28
2019-03-26T08:58:52.211Z,10.85
2019-03-26T09:00:00.975Z,12.55
2019-03-26T09:01:07.726Z,13.03
2019-03-26T09:02:13.445Z,12.35
2019-03-26T09:03:22.417Z,11.65
2019-03-26T09:04:28.192Z,13.05
2019-03-26T09:05:33.858Z,12.35
2019-03-26T09:06:39.456Z,10.90
2019-03-26T09:07:45.021Z,18.52
2019-03-26T09:08:50.714Z,10.50
2019-03-26T09:09:57.884Z,14.20
2019-03-26T09:11:04.788Z,16.15
2019-03-26T09:12:10.405Z,12.85
2019-03-26T09:13:15.976Z,12.80
2019-03-26T09:14:23.094Z,10.75
2019-03-26T09:15:28.852Z,10.63
2019-03-26T09:16:34.509Z,9.98
2019-03-26T09:17:40.231Z,13.35
2019-03-26T09:18:45.716Z,12.40
2019-03-26T09:19:52.166Z,17.27
2019-03-26T09:20:57.765Z,14.60
2019-03-26T09:22:03.133Z,11.65
2019-03-26T09:23:12.078Z,14.98
2019-03-26T09:24:16.282Z,12.80
2019-03-26T09:25:21.807Z,13.28
2019-03-26T09:26:27.508Z,11.48
2019-03-26T09:27:33.028Z,14.43
2019-03-26T09:28:38.575Z,8.55
2019-03-26T09:29:44.142Z,14.00
2019-03-26T09:30:49.671Z,12.78
2019-03-26T09:31:55.262Z,12.20
2019-03-26T09:33:00.688Z,12.65
2019-03-26T09:34:06.309Z,12.68
2019-03-26T09:35:12.820Z,13.65
2019-03-26T09:36:18.275Z,8.80
2019-03-26T09:37:23.911Z,11.03
2019-03-26T09:38:38.895Z,9.70
2019-03-26T09:39:38.454Z,15.72
2019-03-26T09:40:44.282Z,10.25
2019-03-26T09:41:50.062Z,8.95
2019-03-26T09:42:55.732Z,12.78
2019-03-26T09:44:01.202Z,12.43
2019-03-26T09:45:08.315Z,11.85
2019-03-26T09:46:13.847Z,16.37
2019-03-26T09:47:19.572Z,11.20
2019-03-26T09:48:25.274Z,12.88
2019-03-26T09:49:31.764Z,14.63
2019-03-26T09:50:38.133Z,12.25
2019-03-26T09:51:47.019Z,13.68
2019-03-26T09:52:52.659Z,13.62
2019-03-26T09:53:58.145Z,11.90
2019-03-26T09:55:03.741Z,10.58
2019-03-26T09:56:09.417Z,15.35
2019-03-26T09:57:15.140Z,14.28
2019-03-26T09:58:20.720Z,14.65
2019-03-26T09:59:26.249Z,11.53
2019-03-26T10:00:31.937Z,13.08
2019-03-26T10:01:37.571Z,13.13
2019-03-26T10:02:45.350Z,16.45
2019-03-26T10:03:51.016Z,14.58
2019-03-26T10:04:56.437Z,11.60
2019-03-26T10:06:02.296Z,15.28
2019-03-26T10:07:20.556Z,10.50
2019-03-26T10:08:17.660Z,8.65
2019-03-26T10:09:22.294Z,8.63
2019-03-26T10:10:29.321Z,14.85
2019-03-26T10:11:35.096Z,12.28
2019-03-26T10:12:40.538Z,11.30
2019-03-26T10:13:45.992Z,10.48
2019-03-26T10:14:52.751Z,7.22
2019-03-26T10:15:58.093Z,10.93
2019-03-26T10:17:03.748Z,12.43
2019-03-26T10:18:09.648Z,9.63
2019-03-26T10:19:17.050Z,11.35
2019-03-26T10:20:22.564Z,10.15
2019-03-26T10:21:28.274Z,13.53
2019-03-26T10:22:33.903Z,15.45
2019-03-26T10:23:39.770Z,13.13
2019-03-26T10:24:45.922Z,10.15
2019-03-26T10:25:51.503Z,11.08
2019-03-26T10:26:57.397Z,10.03
2019-03-26T10:28:03.300Z,9.88
2019-03-26T10:29:23.998Z,10.25
2019-03-26T10:30:17.252Z,8.18
2019-03-26T10:31:23.026Z,10.55
2019-03-26T10:32:28.773Z,10.80
2019-03-26T10:33:34.486Z,10.40
2019-03-26T10:34:40.892Z,9.10
2019-03-26T10:35:46.525Z,7.78
2019-03-26T10:36:52.259Z,9.53
2019-03-26T10:37:58.118Z,8.35
2019-03-26T10:39:05.561Z,7.08
2019-03-26T10:40:14.568Z,10.63
2019-03-26T10:41:20.691Z,8.50
2019-03-26T10:42:26.405Z,10.03
2019-03-26T10:43:33.814Z,8.90
2019-03-26T10:44:39.512Z,9.18
2019-03-26T10:45:45.260Z,8.08
2019-03-26T10:46:53.480Z,9.00
2019-03-26T10:48:01.805Z,8.73
2019-03-26T10:49:07.537Z,5.03
2019-03-26T10:50:13.293Z,5.22
2019-03-26T10:51:19.629Z,8.00
2019-03-26T10:52:25.259Z,8.38
2019-03-26T10:53:31.060Z,8.18
2019-03-26T10:54:36.751Z,6.72
2019-03-26T10:55:44.600Z,5.58
2019-03-26T10:56:52.408Z,3.87
2019-03-26T10:57:57.903Z,5.42
2019-03-26T10:59:04.422Z,5.83
2019-03-26T11:00:10.577Z,5.78
2019-03-26T11:01:16.204Z,7.97
2019-03-26T11:02:21.969Z,5.33
2019-03-26T11:03:27.689Z,5.37
2019-03-26T11:04:33.677Z,6.58
2019-03-26T11:05:39.172Z,6.25
2019-03-26T11:06:44.840Z,5.22
2019-03-26T11:07:50.380Z,7.40
2019-03-26T11:08:56.092Z,5.80
2019-03-26T11:10:01.860Z,6.00
2019-03-26T11:11:13.930Z,4.70
2019-03-26T11:12:19.743Z,4.87
2019-03-26T11:13:25.555Z,4.25
2019-03-26T11:14:32.856Z,4.83
2019-03-26T11:15:38.678Z,5.58
2019-03-26T11:16:47.187Z,6.12
2019-03-26T11:17:54.898Z,4.45
2019-03-26T11:19:00.904Z,3.35
2019-03-26T11:20:11.318Z,4.25
2019-03-26T11:21:18.436Z,5.40
2019-03-26T11:22:24.138Z,3.12
2019-03-26T11:23:29.733Z,4.17
2019-03-26T11:24:35.475Z,2.45
2019-03-26T11:25:41.084Z,2.72
2019-03-26T11:26:47.171Z,3.30
2019-03-26T11:27:54.163Z,4.78
2019-03-26T11:28:59.778Z,3.47
2019-03-26T11:30:06.457Z,5.67
2019-03-26T11:31:13.480Z,5.35
2019-03-26T11:32:19.040Z,2.98
2019-03-26T11:33:25.852Z,6.35
2019-03-26T11:34:33.570Z,3.35
2019-03-26T11:35:39.412Z,5.50
2019-03-26T11:36:45.219Z,5.28
2019-03-26T11:37:50.856Z,3.10
2019-03-26T11:38:56.718Z,5.55
2019-03-26T11:40:02.548Z,2.70
2019-03-26T11:41:08.293Z,5.67
2019-03-26T11:42:14.027Z,4.75
2019-03-26T11:43:20.085Z,3.47
2019-03-26T11:44:25.972Z,3.55
2019-03-26T11:45:32.087Z,2.90
2019-03-26T11:46:39.128Z,3.45
2019-03-26T11:47:48.769Z,4.03
2019-03-26T11:48:54.788Z,3.92
2019-03-26T11:50:00.621Z,5.60
2019-03-26T11:51:06.688Z,4.03
2019-03-26T11:52:12.400Z,3.40
2019-03-26T11:53:17.992Z,5.05
2019-03-26T11:54:23.850Z,6.65
2019-03-26T11:55:29.383Z,3.50
2019-03-26T11:56:35.012Z,2.83
2019-03-26T11:57:40.971Z,3.15
2019-03-26T11:58:46.896Z,2.70
2019-03-26T11:59:52.784Z,4.67
2019-03-26T12:00:58.428Z,3.60
2019-03-26T12:02:04.911Z,3.83
2019-03-26T12:03:10.644Z,3.67
2019-03-26T12:04:16.263Z,3.00
2019-03-26T12:05:21.904Z,5.80
2019-03-26T12:06:27.618Z,4.45
2019-03-26T12:07:33.339Z,4.70
2019-03-26T12:08:39.128Z,3.92
2019-03-26T12:09:46.498Z,3.80
2019-03-26T12:10:53.645Z,5.08
2019-03-26T12:11:59.599Z,3.27
2019-03-26T12:13:05.443Z,2.85
2019-03-26T12:14:11.310Z,3.65
2019-03-26T12:15:17.191Z,7.95
2019-03-26T12:16:22.928Z,3.22
2019-03-26T12:17:28.533Z,3.22
2019-03-26T12:18:36.012Z,2.30
2019-03-26T12:19:42.052Z,4.10
2019-03-26T12:20:47.873Z,4.05
2019-03-26T12:21:56.295Z,3.50
2019-03-26T12:23:02.953Z,6.25
2019-03-26T12:24:08.569Z,4.42
2019-03-26T12:25:14.360Z,5.50
2019-03-26T12:26:20.128Z,2.10
2019-03-26T12:27:26.879Z,3.70
2019-03-26T12:28:32.692Z,2.98
2019-03-26T12:29:38.672Z,3.87
2019-03-26T12:30:44.739Z,3.17
2019-03-26T12:31:50.630Z,2.80
2019-03-26T12:32:56.564Z,3.37
2019-03-26T12:34:02.713Z,6.33
2019-03-26T12:35:08.751Z,2.90
2019-03-26T12:36:14.715Z,5.10
2019-03-26T12:37:21.048Z,3.52
2019-03-26T12:38:26.712Z,3.40
2019-03-26T12:39:33.833Z,3.85
2019-03-26T12:40:39.356Z,6.22
2019-03-26T12:41:45.024Z,4.50
2019-03-26T12:42:50.757Z,2.05
2019-03-26T12:43:56.609Z,5.12
2019-03-26T12:45:02.150Z,2.15
2019-03-26T12:46:08.025Z,2.98
2019-03-26T12:47:13.692Z,1.95
2019-03-26T12:48:19.396Z,3.10
2019-03-26T12:49:25.046Z,3.33
2019-03-26T12:50:32.292Z,3.40
2019-03-26T12:51:39.412Z,2.67
2019-03-26T12:52:45.448Z,3.02
2019-03-26T12:53:51.434Z,3.77
2019-03-26T12:54:57.049Z,5.80
2019-03-26T12:56:02.642Z,2.87
2019-03-26T12:57:08.327Z,2.95
2019-03-26T12:58:13.862Z,2.95
2019-03-26T12:59:19.640Z,3.30
2019-03-26T13:00:32.048Z,3.77
2019-03-26T13:01:37.828Z,2.55
2019-03-26T13:02:43.559Z,2.55
2019-03-26T13:03:49.201Z,3.65
2019-03-26T13:04:57.389Z,3.35
2019-03-26T13:06:03.214Z,7.12
2019-03-26T13:07:08.850Z,4.05
2019-03-26T13:08:14.692Z,5.35
2019-03-26T13:09:20.596Z,2.25
2019-03-26T13:10:26.300Z,4.15
2019-03-26T13:11:32.138Z,4.53
2019-03-26T13:12:37.704Z,4.97
2019-03-26T13:13:43.215Z,2.35
2019-03-26T13:14:49.092Z,5.67
2019-03-26T13:15:55.493Z,2.75
2019-03-26T13:17:01.202Z,4.08
2019-03-26T13:18:07.242Z,1.67
2019-03-26T13:19:13.134Z,3.77
2019-03-26T13:20:19.010Z,1.55
2019-03-26T13:21:24.730Z,4.87
2019-03-26T13:22:30.405Z,6.62
2019-03-26T13:23:35.969Z,2.77
2019-03-26T13:24:41.567Z,1.98
2019-03-26T13:25:48.422Z,3.37
2019-03-26T13:26:54.514Z,2.33
2019-03-26T13:28:00.338Z,2.17
2019-03-26T13:29:06.148Z,3.70
2019-03-26T13:30:12.231Z,4.65
2019-03-26T13:31:17.824Z,2.45
2019-03-26T13:32:23.327Z,3.75
2019-03-26T13:33:29.398Z,1.52
2019-03-26T13:34:35.003Z,2.20
2019-03-26T13:35:40.516Z,3.40
2019-03-26T13:36:46.844Z,3.05
2019-03-26T13:37:53.515Z,5.08
2019-03-26T13:38:59.373Z,4.58
2019-03-26T13:40:05.399Z,3.77
2019-03-26T13:41:10.865Z,1.45
2019-03-26T13:42:16.522Z,4.17
2019-03-26T13:43:22.156Z,2.72
2019-03-26T13:44:27.888Z,3.50
2019-03-26T13:45:33.535Z,1.82
2019-03-26T13:46:39.688Z,3.52
2019-03-26T13:47:45.623Z,2.15
2019-03-26T13:48:51.358Z,1.65
2019-03-26T13:49:57.084Z,4.95
2019-03-26T13:51:02.805Z,3.65
2019-03-26T13:52:10.914Z,3.65
2019-03-26T13:53:20.100Z,4.03
2019-03-26T13:54:25.766Z,2.58
2019-03-26T13:55:31.438Z,4.55
2019-03-26T13:56:37.018Z,3.30
2019-03-26T13:57:44.206Z,3.67
2019-03-26T13:58:49.915Z,4.20
2019-03-26T13:59:55.716Z,3.37
2019-03-26T14:01:01.878Z,2.45
2019-03-26T14:02:08.885Z,2.02
2019-03-26T14:03:14.776Z,4.28
2019-03-26T14:04:20.906Z,3.95
2019-03-26T14:05:27.413Z,2.90
2019-03-26T14:06:33.329Z,3.87
2019-03-26T14:07:39.739Z,4.15
2019-03-26T14:08:46.525Z,1.92
2019-03-26T14:09:52.177Z,5.95
2019-03-26T14:10:57.886Z,3.58
2019-03-26T14:12:08.187Z,2.92
2019-03-26T14:13:13.609Z,4.58
2019-03-26T14:14:19.191Z,5.00
2019-03-26T14:15:24.956Z,3.70
2019-03-26T14:16:30.693Z,2.95